createdAt,value
2018-04-16T00:00:26.903Z,5.10
2018-04-16T00:02:55.749Z,5.07
2018-04-16T00:05:24.564Z,4.40
2018-04-16T00:07:53.376Z,4.17
2018-04-16T00:10:22.231Z,5.17
2018-04-16T00:12:51.867Z,5.60
2018-04-16T00:15:20.672Z,5.50
2018-04-16T00:17:49.513Z,5.50
2018-04-16T00:20:18.318Z,4.03
2018-04-16T00:22:47.119Z,4.57
2018-04-16T00:25:15.970Z,4.30
2018-04-16T00:27:44.769Z,5.20
2018-04-16T00:30:13.586Z,4.03
2018-04-16T00:32:48.576Z,3.87
2018-04-16T00:35:23.130Z,3.30
2018-04-16T00:37:57.806Z,3.27
2018-04-16T00:40:32.478Z,4.77
2018-04-16T00:43:06.991Z,5.10
2018-04-16T00:45:41.467Z,4.47
2018-04-16T00:48:16.843Z,4.83
2018-04-16T00:50:51.508Z,4.03
2018-04-16T00:53:25.986Z,4.50
2018-04-16T00:56:00.495Z,4.07
2018-04-16T00:58:35.005Z,4.63
2018-04-16T01:01:09.710Z,7.07
2018-04-16T01:03:45.296Z,4.13
2018-04-16T01:06:29.764Z,3.60
2018-04-16T01:09:05.934Z,4.10
2018-04-16T01:11:40.517Z,4.40
2018-04-16T01:14:15.147Z,4.40
2018-04-16T01:16:49.717Z,4.20
2018-04-16T01:19:24.399Z,4.33
2018-04-16T01:21:59.046Z,3.40
2018-04-16T01:24:34.295Z,3.33
2018-04-16T01:27:22.782Z,3.30
2018-04-16T01:29:57.462Z,5.93
2018-04-16T01:32:32.114Z,3.20
2018-04-16T01:35:07.037Z,3.13
2018-04-16T01:37:50.747Z,4.23
2018-04-16T01:40:26.029Z,3.60
2018-04-16T01:43:00.660Z,3.77
2018-04-16T01:45:35.168Z,4.83
2018-04-16T01:48:09.890Z,4.00
2018-04-16T01:50:44.539Z,3.83
2018-04-16T01:53:19.301Z,3.50
2018-04-16T01:55:54.389Z,4.30
2018-04-16T01:58:29.085Z,3.43
2018-04-16T02:01:03.643Z,4.17
2018-04-16T02:03:38.170Z,3.77
2018-04-16T02:06:12.728Z,3.77
2018-04-16T02:08:48.174Z,3.53
2018-04-16T02:11:22.958Z,3.77
2018-04-16T02:13:57.486Z,3.20
2018-04-16T02:16:32.239Z,5.20
2018-04-16T02:19:06.774Z,4.57
2018-04-16T02:21:41.458Z,3.20
2018-04-16T02:24:16.158Z,3.17
2018-04-16T02:26:51.538Z,4.60
2018-04-16T02:29:26.081Z,4.73
2018-04-16T02:32:00.795Z,4.07
2018-04-16T02:34:35.383Z,3.53
2018-04-16T02:37:09.938Z,4.00
2018-04-16T02:39:44.549Z,3.77
2018-04-16T02:42:19.893Z,4.23
2018-04-16T02:44:54.585Z,5.00
2018-04-16T02:47:29.170Z,3.27
2018-04-16T02:50:03.635Z,5.20
2018-04-16T02:52:38.379Z,3.80
2018-04-16T02:55:13.022Z,4.50
2018-04-16T02:57:47.861Z,3.77
2018-04-16T03:00:22.383Z,3.47
2018-04-16T03:02:56.983Z,4.33
2018-04-16T03:05:31.614Z,5.40
2018-04-16T03:08:06.213Z,5.60
2018-04-16T03:10:40.882Z,4.57
2018-04-16T03:13:16.325Z,4.17
2018-04-16T03:15:50.808Z,4.90
2018-04-16T03:18:37.567Z,4.43
2018-04-16T03:21:12.215Z,5.67
2018-04-16T03:23:46.752Z,4.90
2018-04-16T03:26:21.210Z,4.37
2018-04-16T03:28:56.533Z,4.20
2018-04-16T03:31:31.142Z,3.90
2018-04-16T03:34:05.706Z,4.60
2018-04-16T03:36:40.162Z,4.10
2018-04-16T03:39:14.870Z,4.73
2018-04-16T03:41:49.412Z,4.10
2018-04-16T03:44:24.218Z,4.60
2018-04-16T03:46:58.738Z,4.77
2018-04-16T03:49:33.349Z,4.50
2018-04-16T03:52:08.778Z,4.63
2018-04-16T03:54:37.626Z,4.47
2018-04-16T03:57:06.434Z,4.83
2018-04-16T03:59:35.254Z,5.30
2018-04-16T04:02:04.119Z,4.10
2018-04-16T04:04:32.965Z,4.63
2018-04-16T04:07:01.765Z,4.73
2018-04-16T04:09:31.985Z,4.30
2018-04-16T04:12:00.803Z,5.50
2018-04-16T04:14:29.869Z,4.40
2018-04-16T04:16:58.678Z,5.83
2018-04-16T04:19:27.522Z,6.23
2018-04-16T04:21:56.529Z,4.97
2018-04-16T04:24:31.048Z,4.93
2018-04-16T04:27:06.108Z,4.67
2018-04-16T04:29:40.897Z,4.33
2018-04-16T04:32:10.036Z,4.87
2018-04-16T04:34:38.850Z,4.50
2018-04-16T04:37:07.656Z,4.97
2018-04-16T04:39:36.519Z,4.03
2018-04-16T04:42:05.316Z,3.93
2018-04-16T04:44:34.122Z,3.00
2018-04-16T04:47:03.166Z,3.13
2018-04-16T04:49:31.990Z,3.13
2018-04-16T04:52:00.800Z,3.83
2018-04-16T04:54:29.623Z,4.40
2018-04-16T04:56:58.425Z,5.10
2018-04-16T04:59:27.630Z,5.53
2018-04-16T05:01:56.447Z,4.53
2018-04-16T05:04:25.296Z,4.93
2018-04-16T05:06:54.142Z,4.13
2018-04-16T05:09:22.985Z,5.30
2018-04-16T05:11:51.799Z,5.00
2018-04-16T05:14:20.671Z,5.23
2018-04-16T05:16:49.470Z,5.27
2018-04-16T05:19:18.281Z,5.13
2018-04-16T05:21:48.869Z,3.07
2018-04-16T05:24:17.781Z,5.33
2018-04-16T05:26:46.594Z,4.43
2018-04-16T05:29:15.695Z,4.27
2018-04-16T05:31:44.551Z,4.27
2018-04-16T05:34:13.431Z,3.70
2018-04-16T05:36:42.538Z,3.70
2018-04-16T05:39:11.346Z,3.07
2018-04-16T05:41:40.159Z,3.77
2018-04-16T05:44:09.097Z,4.73
2018-04-16T05:46:37.989Z,4.27
2018-04-16T05:49:06.790Z,3.83
2018-04-16T05:51:35.985Z,3.80
2018-04-16T05:54:04.785Z,4.37
2018-04-16T05:56:33.587Z,3.97
2018-04-16T05:59:03.730Z,4.13
2018-04-16T06:01:32.570Z,4.20
2018-04-16T06:04:01.385Z,5.53
2018-04-16T06:06:30.263Z,6.27
2018-04-16T06:09:00.986Z,4.43
2018-04-16T06:11:29.785Z,4.00
2018-04-16T06:13:58.653Z,4.37
2018-04-16T06:16:27.467Z,4.17
2018-04-16T06:18:56.264Z,3.97
2018-04-16T06:21:25.227Z,4.20
2018-04-16T06:23:54.054Z,4.87
2018-04-16T06:26:22.889Z,4.93
2018-04-16T06:28:51.753Z,4.80
2018-04-16T06:31:20.569Z,4.53
2018-04-16T06:33:49.394Z,4.00
2018-04-16T06:36:18.374Z,3.60
2018-04-16T06:38:47.180Z,3.90
2018-04-16T06:41:15.978Z,4.50
2018-04-16T06:43:45.042Z,4.40
2018-04-16T06:46:13.846Z,4.93
2018-04-16T06:48:42.933Z,4.70
2018-04-16T06:51:11.736Z,4.40
2018-04-16T06:53:40.536Z,4.00
2018-04-16T06:56:09.613Z,4.47
2018-04-16T06:58:38.498Z,4.37
2018-04-16T07:01:07.314Z,4.70
2018-04-16T07:03:36.202Z,3.83
2018-04-16T07:06:05.034Z,3.53
2018-04-16T07:08:33.893Z,4.10
2018-04-16T07:11:02.788Z,4.33
2018-04-16T07:13:31.585Z,3.93
2018-04-16T07:16:00.598Z,4.33
2018-04-16T07:18:29.334Z,4.17
2018-04-16T07:20:58.139Z,4.23
2018-04-16T07:23:26.988Z,4.50
2018-04-16T07:25:56.406Z,4.27
2018-04-16T07:28:25.322Z,4.27
2018-04-16T07:30:54.143Z,3.60
2018-04-16T07:33:23.171Z,3.43
2018-04-16T07:35:51.975Z,2.80
2018-04-16T07:38:20.806Z,3.13
2018-04-16T07:40:49.656Z,2.43
2018-04-16T07:43:18.473Z,2.50
2018-04-16T07:45:47.364Z,3.10
2018-04-16T07:48:16.173Z,3.90
2018-04-16T07:50:44.996Z,3.33
2018-04-16T07:53:13.816Z,3.33
2018-04-16T07:55:42.687Z,2.60
2018-04-16T07:58:11.799Z,2.43
2018-04-16T08:00:40.611Z,2.90
2018-04-16T08:03:09.403Z,2.47
2018-04-16T08:05:38.351Z,2.43
2018-04-16T08:08:07.180Z,2.00
2018-04-16T08:10:36.043Z,2.00
2018-04-16T08:13:05.127Z,2.17
2018-04-16T08:15:33.935Z,2.00
2018-04-16T08:18:02.739Z,2.30
2018-04-16T08:20:31.630Z,1.93
2018-04-16T08:23:00.430Z,2.03
2018-04-16T08:25:29.258Z,2.20
2018-04-16T08:27:58.915Z,2.10
2018-04-16T08:30:27.735Z,2.00
2018-04-16T08:32:56.536Z,1.67
2018-04-16T08:35:27.402Z,2.00
2018-04-16T08:37:56.295Z,1.70
2018-04-16T08:40:25.110Z,1.90
2018-04-16T08:42:53.958Z,1.70
2018-04-16T08:45:22.759Z,2.00
2018-04-16T08:47:51.627Z,1.90
2018-04-16T08:50:20.434Z,2.10
2018-04-16T08:52:49.251Z,2.13
2018-04-16T08:55:18.078Z,2.10
2018-04-16T08:57:46.883Z,2.10
2018-04-16T09:00:15.763Z,2.27
2018-04-16T09:02:44.577Z,2.10
2018-04-16T09:05:13.389Z,2.10
2018-04-16T09:07:42.253Z,1.93
2018-04-16T09:10:11.058Z,1.90
2018-04-16T09:12:39.874Z,1.90
2018-04-16T09:15:08.718Z,1.90
2018-04-16T09:17:37.518Z,2.50
2018-04-16T09:20:06.363Z,2.20
2018-04-16T09:22:35.169Z,1.93
2018-04-16T09:25:03.986Z,1.70
2018-04-16T09:27:33.067Z,1.63
2018-04-16T09:30:02.051Z,1.90
2018-04-16T09:32:30.879Z,1.63
2018-04-16T09:34:59.764Z,1.60
2018-04-16T09:37:28.567Z,1.50
2018-04-16T09:39:57.454Z,1.60
2018-04-16T09:42:26.254Z,1.40
2018-04-16T09:44:55.142Z,1.60
2018-04-16T09:47:23.991Z,1.50
2018-04-16T09:49:52.807Z,1.93
2018-04-16T09:52:22.003Z,1.83
2018-04-16T09:54:50.818Z,1.70
2018-04-16T09:57:19.619Z,1.70
2018-04-16T09:59:48.678Z,1.90
2018-04-16T10:02:23.247Z,1.80
2018-04-16T10:04:52.204Z,1.50
2018-04-16T10:07:20.991Z,1.50
2018-04-16T10:09:49.795Z,1.40
2018-04-16T10:12:18.669Z,1.60
2018-04-16T10:14:47.555Z,1.70
2018-04-16T10:17:16.363Z,1.53
2018-04-16T10:19:45.237Z,1.60
2018-04-16T10:22:14.041Z,1.43
2018-04-16T10:24:43.014Z,1.87
2018-04-16T10:27:11.819Z,1.50
2018-04-16T10:29:40.631Z,1.20
2018-04-16T10:32:11.430Z,1.40
2018-04-16T10:34:40.242Z,1.70
2018-04-16T10:37:09.050Z,1.50
2018-04-16T10:39:38.323Z,1.10
2018-04-16T10:42:07.130Z,1.37
2018-04-16T10:44:35.933Z,1.20
2018-04-16T10:47:04.783Z,1.10
2018-04-16T10:49:33.581Z,1.40
2018-04-16T10:52:03.402Z,1.40
2018-04-16T10:54:32.285Z,1.40
2018-04-16T10:57:01.094Z,1.07
2018-04-16T10:59:30.155Z,1.20
2018-04-16T11:01:59.047Z,1.20
2018-04-16T11:04:27.854Z,1.10
2018-04-16T11:06:56.931Z,1.20
2018-04-16T11:09:28.073Z,1.10
2018-04-16T11:11:56.878Z,1.23
2018-04-16T11:14:25.723Z,1.30
2018-04-16T11:16:54.513Z,1.50
2018-04-16T11:19:23.556Z,1.17
2018-04-16T11:21:52.358Z,1.30
2018-04-16T11:24:21.172Z,1.20
2018-04-16T11:26:51.153Z,1.10
2018-04-16T11:29:19.949Z,1.10
2018-04-16T11:31:48.764Z,1.30
2018-04-16T11:34:18.118Z,1.10
2018-04-16T11:36:46.936Z,1.07
2018-04-16T11:39:15.936Z,1.27
2018-04-16T11:41:44.785Z,1.10
2018-04-16T11:44:13.602Z,1.00
2018-04-16T11:46:42.776Z,1.40
2018-04-16T11:49:11.672Z,2.00
2018-04-16T11:51:40.464Z,1.73
2018-04-16T11:54:09.323Z,1.80
2018-04-16T11:56:38.232Z,1.70
2018-04-16T11:59:07.030Z,1.67
2018-04-16T12:01:35.895Z,1.50
2018-04-16T12:04:04.717Z,2.10
2018-04-16T12:06:33.517Z,1.70
2018-04-16T12:09:03.315Z,1.90
2018-04-16T12:11:32.119Z,1.57
2018-04-16T12:14:00.991Z,1.53
2018-04-16T12:16:29.823Z,1.33
2018-04-16T12:18:58.623Z,1.33
2018-04-16T12:21:33.193Z,1.60
2018-04-16T12:24:07.770Z,1.37
2018-04-16T12:26:37.318Z,1.58
2018-04-16T12:29:06.161Z,1.42
2018-04-16T12:31:35.010Z,1.50
2018-04-16T12:34:03.858Z,1.60
2018-04-16T12:36:33.703Z,1.50
2018-04-16T12:39:02.511Z,1.45
2018-04-16T12:41:31.346Z,1.40
2018-04-16T12:44:00.178Z,1.60
2018-04-16T12:46:35.010Z,1.60
2018-04-16T12:49:09.637Z,1.70
2018-04-16T12:51:44.290Z,1.77
2018-04-16T12:54:13.151Z,1.80
2018-04-16T12:56:47.976Z,1.67
2018-04-16T12:59:16.878Z,1.80
2018-04-16T13:01:52.310Z,2.20
2018-04-16T13:04:21.113Z,1.42
2018-04-16T13:06:49.920Z,1.75
2018-04-16T13:09:20.103Z,2.12
2018-04-16T13:11:54.827Z,1.65
2018-04-16T13:14:23.670Z,2.10
2018-04-16T13:16:58.129Z,1.80
2018-04-16T13:19:27.014Z,2.00
2018-04-16T13:21:55.818Z,2.30
2018-04-16T13:24:24.641Z,2.00
2018-04-16T13:26:53.726Z,1.77
2018-04-16T13:29:22.614Z,2.15
2018-04-16T13:31:57.538Z,1.85
2018-04-16T13:34:26.450Z,2.03
2018-04-16T13:36:56.459Z,3.15
2018-04-16T13:39:25.303Z,2.55
2018-04-16T13:41:54.102Z,1.75
2018-04-16T13:44:23.025Z,1.75
2018-04-16T13:46:51.913Z,1.92
2018-04-16T13:49:20.802Z,2.22
2018-04-16T13:51:49.893Z,1.80
2018-04-16T13:54:18.794Z,1.83
2018-04-16T13:56:47.681Z,1.92
2018-04-16T13:59:23.634Z,2.08
2018-04-16T14:01:52.454Z,1.80
2018-04-16T14:04:21.322Z,1.62
2018-04-16T14:06:56.236Z,1.40
2018-04-16T14:09:25.147Z,1.65
2018-04-16T14:11:53.970Z,2.00
2018-04-16T14:14:22.803Z,1.92
2018-04-16T14:16:51.828Z,2.20
2018-04-16T14:19:20.630Z,1.77
2018-04-16T14:21:49.452Z,1.67
2018-04-16T14:24:18.318Z,1.48
2018-04-16T14:26:52.761Z,1.65
2018-04-16T14:29:21.630Z,1.50
2018-04-16T14:31:50.460Z,1.42
2018-04-16T14:34:19.269Z,1.67
2018-04-16T14:36:48.286Z,1.40
2018-04-16T14:39:17.629Z,1.70
2018-04-16T14:41:52.615Z,1.55
2018-04-16T14:44:21.397Z,1.23
2018-04-16T14:47:02.271Z,1.60
2018-04-16T14:49:31.073Z,1.77
2018-04-16T14:52:12.850Z,1.73
2018-04-16T14:54:47.543Z,1.73
2018-04-16T14:57:16.650Z,1.62
2018-04-16T14:59:57.119Z,1.87
2018-04-16T15:02:26.141Z,1.62
2018-04-16T15:05:00.822Z,1.52
2018-04-16T15:07:32.214Z,1.70
2018-04-16T15:10:01.013Z,1.50
2018-04-16T15:12:29.822Z,1.25
2018-04-16T15:14:58.634Z,1.50
2018-04-16T15:17:27.443Z,1.52
2018-04-16T15:19:56.565Z,1.27
2018-04-16T15:22:25.374Z,1.30
2018-04-16T15:24:54.199Z,1.60
2018-04-16T15:27:23.058Z,1.45
2018-04-16T15:29:51.884Z,1.42
2018-04-16T15:32:20.815Z,1.60
2018-04-16T15:34:49.629Z,1.48
2018-04-16T15:37:18.434Z,1.50
2018-04-16T15:39:48.143Z,1.52
2018-04-16T15:42:16.954Z,1.35
2018-04-16T15:44:45.776Z,1.40
2018-04-16T15:47:14.627Z,1.58
2018-04-16T15:49:43.428Z,1.30
2018-04-16T15:52:12.238Z,1.50
2018-04-16T15:54:41.142Z,1.65
2018-04-16T15:57:09.957Z,1.30
2018-04-16T15:59:38.776Z,1.60
2018-04-16T16:02:08.031Z,1.80
2018-04-16T16:04:36.842Z,1.30
2018-04-16T16:07:05.703Z,1.50
2018-04-16T16:09:34.515Z,1.35
2018-04-16T16:12:03.432Z,1.87
2018-04-16T16:14:32.278Z,1.55
2018-04-16T16:17:01.162Z,1.50
2018-04-16T16:19:29.974Z,1.77
2018-04-16T16:21:58.825Z,1.65
2018-04-16T16:24:27.733Z,1.50
2018-04-16T16:26:56.630Z,1.65
2018-04-16T16:29:26.749Z,1.95
2018-04-16T16:31:55.604Z,1.60
2018-04-16T16:34:24.379Z,1.50
2018-04-16T16:36:53.943Z,1.87
2018-04-16T16:39:22.763Z,1.67
2018-04-16T16:41:52.326Z,1.77
2018-04-16T16:44:21.342Z,1.47
2018-04-16T16:46:50.176Z,1.87
2018-04-16T16:49:19.004Z,1.50
2018-04-16T16:51:47.846Z,1.90
2018-04-16T16:54:16.700Z,1.80
2018-04-16T16:56:45.998Z,1.70
2018-04-16T16:59:14.802Z,1.70
2018-04-16T17:01:43.614Z,1.73
2018-04-16T17:04:17.787Z,1.67
2018-04-16T17:06:46.663Z,1.70
2018-04-16T17:09:17.297Z,1.67
2018-04-16T17:11:46.107Z,1.90
2018-04-16T17:14:14.914Z,1.70
2018-04-16T17:16:43.795Z,1.20
2018-04-16T17:19:12.665Z,1.50
2018-04-16T17:21:41.555Z,1.63
2018-04-16T17:24:10.444Z,1.50
2018-04-16T17:26:39.250Z,1.40
2018-04-16T17:29:08.105Z,1.67
2018-04-16T17:31:37.074Z,1.50
2018-04-16T17:34:05.843Z,1.73
2018-04-16T17:36:34.671Z,1.97
2018-04-16T17:39:03.477Z,2.03
2018-04-16T17:41:32.335Z,1.67
2018-04-16T17:44:01.162Z,2.23
2018-04-16T17:46:30.055Z,1.80
2018-04-16T17:48:58.951Z,1.63
2018-04-16T17:51:27.771Z,1.90
2018-04-16T17:53:56.590Z,1.63
2018-04-16T17:56:25.425Z,2.00
2018-04-16T17:58:54.253Z,1.87
2018-04-16T18:01:23.064Z,1.67
2018-04-16T18:03:53.015Z,2.00
2018-04-16T18:06:21.833Z,1.60
2018-04-16T18:08:50.690Z,1.70
2018-04-16T18:11:21.552Z,1.60
2018-04-16T18:13:50.354Z,1.80
2018-04-16T18:16:19.167Z,1.70
2018-04-16T18:18:48.015Z,2.17
2018-04-16T18:21:16.839Z,2.07
2018-04-16T18:23:45.659Z,1.67
2018-04-16T18:26:15.595Z,1.77
2018-04-16T18:28:44.423Z,1.70
2018-04-16T18:31:13.235Z,1.83
2018-04-16T18:33:42.070Z,1.90
2018-04-16T18:36:10.954Z,1.93
2018-04-16T18:38:39.801Z,2.07
2018-04-16T18:41:08.634Z,1.93
2018-04-16T18:43:37.441Z,1.83
2018-04-16T18:46:06.938Z,2.07
2018-04-16T18:48:35.749Z,2.17
2018-04-16T18:51:04.571Z,1.80
2018-04-16T18:53:33.418Z,2.10
2018-04-16T18:56:02.232Z,2.27
2018-04-16T18:58:31.075Z,2.03
2018-04-16T19:00:59.951Z,2.10
2018-04-16T19:03:28.743Z,2.03
2018-04-16T19:05:57.562Z,2.00
2018-04-16T19:08:29.321Z,2.00
2018-04-16T19:10:58.154Z,2.17
2018-04-16T19:13:27.265Z,2.50
2018-04-16T19:15:56.092Z,2.27
2018-04-16T19:18:24.975Z,3.00
2018-04-16T19:20:59.603Z,2.50
2018-04-16T19:23:29.620Z,2.57
2018-04-16T19:25:58.442Z,2.70
2018-04-16T19:28:27.561Z,2.60
2018-04-16T19:30:56.480Z,3.03
2018-04-16T19:33:30.992Z,3.43
2018-04-16T19:35:59.872Z,2.60
2018-04-16T19:38:28.687Z,2.80
2018-04-16T19:40:57.496Z,2.43
2018-04-16T19:43:27.428Z,2.80
2018-04-16T19:45:56.241Z,3.00
2018-04-16T19:48:25.068Z,2.43
2018-04-16T19:50:54.182Z,3.17
2018-04-16T19:53:23.016Z,2.70
2018-04-16T19:55:57.721Z,2.80
2018-04-16T19:58:26.512Z,2.90
2018-04-16T20:00:55.330Z,2.50
2018-04-16T20:03:31.245Z,2.50
2018-04-16T20:06:00.046Z,2.27
2018-04-16T20:08:28.906Z,2.50
2018-04-16T20:10:57.795Z,2.80
2018-04-16T20:13:27.795Z,2.80
2018-04-16T20:15:56.643Z,2.73
2018-04-16T20:18:25.455Z,2.87
2018-04-16T20:20:54.299Z,2.80
2018-04-16T20:23:23.130Z,2.57
2018-04-16T20:25:51.950Z,2.43
2018-04-16T20:28:20.972Z,2.77
2018-04-16T20:30:49.799Z,2.30
2018-04-16T20:33:18.623Z,2.87
2018-04-16T20:35:47.487Z,2.33
2018-04-16T20:38:16.299Z,2.37
2018-04-16T20:40:45.110Z,2.27
2018-04-16T20:43:13.976Z,2.50
2018-04-16T20:45:42.798Z,2.27
2018-04-16T20:48:11.601Z,2.60
2018-04-16T20:50:40.453Z,2.60
2018-04-16T20:53:09.277Z,2.50
2018-04-16T20:55:38.093Z,2.50
2018-04-16T20:58:07.972Z,2.23
2018-04-16T21:00:37.660Z,2.67
2018-04-16T21:03:06.454Z,2.30
2018-04-16T21:05:35.316Z,2.70
2018-04-16T21:08:04.109Z,2.33
2018-04-16T21:10:32.910Z,2.63
2018-04-16T21:13:01.787Z,2.10
2018-04-16T21:15:31.539Z,3.00
2018-04-16T21:18:00.340Z,2.27
2018-04-16T21:20:29.201Z,2.47
2018-04-16T21:22:58.004Z,2.30
2018-04-16T21:25:26.818Z,2.70
2018-04-16T21:27:55.658Z,2.50
2018-04-16T21:30:24.496Z,2.50
2018-04-16T21:32:53.318Z,2.37
2018-04-16T21:35:23.125Z,2.40
2018-04-16T21:37:51.878Z,2.67
2018-04-16T21:40:20.751Z,2.40
2018-04-16T21:42:49.561Z,2.80
2018-04-16T21:45:18.431Z,2.50
2018-04-16T21:47:47.268Z,2.10
2018-04-16T21:50:16.360Z,2.70
2018-04-16T21:52:45.239Z,2.13
2018-04-16T21:55:14.098Z,3.00
2018-04-16T21:57:42.900Z,2.37
2018-04-16T22:00:11.787Z,2.43
2018-04-16T22:02:40.669Z,2.80
2018-04-16T22:05:09.550Z,2.33
2018-04-16T22:07:40.082Z,2.87
2018-04-16T22:10:08.945Z,2.60
2018-04-16T22:12:37.755Z,2.57
2018-04-16T22:15:06.557Z,2.17
2018-04-16T22:17:35.403Z,2.53
2018-04-16T22:20:04.230Z,2.30
2018-04-16T22:22:33.054Z,2.60
2018-04-16T22:25:02.531Z,2.53
2018-04-16T22:27:31.329Z,2.37
2018-04-16T22:30:00.147Z,2.60
2018-04-16T22:32:29.100Z,2.67
2018-04-16T22:34:57.906Z,2.20
2018-04-16T22:37:26.785Z,2.30
2018-04-16T22:39:55.617Z,2.70
2018-04-16T22:42:24.458Z,2.40
2018-04-16T22:44:54.062Z,3.37
2018-04-16T22:47:22.878Z,2.97
2018-04-16T22:49:51.695Z,2.60
2018-04-16T22:52:20.633Z,2.83
2018-04-16T22:54:49.434Z,2.70
2018-04-16T22:57:18.241Z,2.50
2018-04-16T22:59:47.114Z,2.43
2018-04-16T23:02:15.919Z,2.23
2018-04-16T23:04:44.790Z,2.40
2018-04-16T23:07:13.670Z,2.17
2018-04-16T23:09:44.199Z,2.67
2018-04-16T23:12:13.005Z,2.53
2018-04-16T23:14:41.845Z,2.43
2018-04-16T23:17:10.737Z,2.70
2018-04-16T23:19:39.550Z,2.33
2018-04-16T23:22:08.398Z,2.50
2018-04-16T23:24:37.208Z,2.53
2018-04-16T23:27:06.073Z,2.20
2018-04-16T23:29:35.124Z,3.07
2018-04-16T23:32:03.935Z,2.80
2018-04-16T23:34:32.819Z,3.10
2018-04-16T23:37:01.653Z,2.90
2018-04-16T23:39:30.485Z,2.77
2018-04-16T23:41:59.378Z,2.70
2018-04-16T23:44:28.270Z,2.80
2018-04-16T23:46:57.163Z,2.70
2018-04-16T23:49:26.035Z,2.40
2018-04-16T23:51:54.834Z,2.10
2018-04-16T23:54:23.649Z,2.53
2018-04-16T23:56:52.527Z,3.07
2018-04-16T23:59:21.414Z,2.73
